Time;durP1;ratioP1;P1;durP2;ratioP2;P2;SDS_P1;SDS_P2;PMS_P1;PMS_P2;Temp;Humidity;BMP_temperature;BMP_pressure;BME280_temperature;BME280_humidity;BME280_pressure;Samples;Min_cycle;Max_cycle;Signal;HPM_P1;HPM_P2
2023/02/24 00:01:27;;;;;;;1.17;0.98;;;;;;;20.09;36.93;101480.88;5022460;28;20172;-83
2023/02/24 00:03:59;;;;;;;1.48;1.20;;;;;;;20.10;36.63;101467.50;5023920;28;20491;-83
2023/02/24 00:06:35;;;;;;;0.80;0.80;;;;;;;20.11;36.85;101455.13;5020461;28;20045;-82
2023/02/24 00:09:07;;;;;;;0.70;0.70;;;;;;;20.17;36.86;101452.63;5020085;28;20972;-82
2023/02/24 00:11:34;;;;;;;0.98;0.73;;;;;;;20.06;36.83;101437.09;5016675;28;20033;-83
2023/02/24 00:13:59;;;;;;;1.00;0.85;;;;;;;19.93;36.66;101413.00;5015081;28;20476;-83
2023/02/24 00:16:25;;;;;;;1.58;1.02;;;;;;;20.05;36.93;101435.44;4988648;28;20049;-83
2023/02/24 00:18:51;;;;;;;1.15;0.90;;;;;;;20.09;36.79;101435.94;5005724;28;20080;-83
2023/02/24 00:21:18;;;;;;;1.17;0.77;;;;;;;20.19;36.72;101431.31;5027258;28;20038;-83
2023/02/24 00:23:45;;;;;;;0.85;0.75;;;;;;;20.03;36.78;101411.00;5021925;28;20046;-83
2023/02/24 00:26:13;;;;;;;1.17;1.02;;;;;;;20.09;36.83;101426.19;5023798;28;20387;-82
2023/02/24 00:28:40;;;;;;;0.68;0.68;;;;;;;20.10;36.64;101406.69;5019046;28;20030;-82
2023/02/24 00:31:09;;;;;;;1.45;1.02;;;;;;;20.18;36.63;101421.72;5024540;28;20029;-82
2023/02/24 00:33:36;;;;;;;2.05;1.05;;;;;;;20.09;36.94;101420.91;5014914;28;20120;-83
2023/02/24 00:36:23;;;;;;;1.25;1.08;;;;;;;20.13;36.74;101409.03;5014494;28;20045;-82
2023/02/24 00:38:54;;;;;;;1.40;1.13;;;;;;;20.17;36.65;101414.78;5022322;28;20037;-82
2023/02/24 00:41:24;;;;;;;0.82;0.73;;;;;;;20.15;36.67;101404.38;5029214;28;20403;-83
2023/02/24 00:43:50;;;;;;;1.23;0.90;;;;;;;20.09;36.82;101394.47;5014873;28;20025;-82
2023/02/24 00:46:20;;;;;;;0.80;0.80;;;;;;;20.08;36.86;101373.47;5013748;28;20043;-82
2023/02/24 00:48:47;;;;;;;;;;;;;;;20.11;36.90;101373.16;5017160;28;20034;-83
2023/02/24 00:51:22;;;;;;;1.77;0.98;;;;;;;20.14;36.65;101365.72;5023859;28;20003;-82
2023/02/24 00:53:49;;;;;;;2.33;1.20;;;;;;;20.15;36.74;101366.53;5022514;28;20054;-83
2023/02/24 00:56:16;;;;;;;1.20;1.10;;;;;;;19.95;36.74;101330.91;5018917;28;20060;-82
2023/02/24 00:58:43;;;;;;;1.00;0.85;;;;;;;20.00;36.64;101339.97;5020302;28;20057;-82
2023/02/24 01:01:18;;;;;;;1.40;0.75;;;;;;;20.10;36.59;101352.97;5021122;28;20045;-83
2023/02/24 01:03:44;;;;;;;1.23;0.90;;;;;;;20.05;36.60;101340.28;5032950;28;20045;-82
2023/02/24 01:06:12;;;;;;;0.80;0.80;;;;;;;20.04;36.85;101349.19;5018778;28;20442;-83
2023/02/24 01:08:41;;;;;;;1.20;1.00;;;;;;;20.15;36.57;101343.56;5016889;28;20056;-83
2023/02/24 01:13:52;;;;;;;0.95;0.70;;;;;;;20.12;36.74;101330.69;5014987;28;20478;-83
2023/02/24 01:16:17;;;;;;;0.68;0.68;;;;;;;19.92;36.79;101313.53;5019343;28;20045;-83
2023/02/24 01:18:47;;;;;;;0.90;0.63;;;;;;;20.01;36.54;101317.81;5019972;28;20040;-82
2023/02/24 01:21:16;;;;;;;1.10;0.80;;;;;;;20.10;36.62;101321.25;5025918;28;20053;-83
2023/02/24 01:23:47;;;;;;;0.68;0.68;;;;;;;20.06;36.73;101320.78;5022102;28;20105;-82
2023/02/24 01:26:13;;;;;;;1.58;0.93;;;;;;;20.12;36.55;101319.28;5026062;28;20183;-83
2023/02/24 01:28:38;;;;;;;1.52;0.70;;;;;;;20.03;36.63;101304.44;5026214;28;20108;-82
2023/02/24 01:31:05;;;;;;;0.88;0.60;;;;;;;19.99;36.80;101311.06;5009093;28;20038;-83
2023/02/24 01:33:32;;;;;;;1.00;0.80;;;;;;;20.02;36.65;101293.03;5027339;28;20045;-83
2023/02/24 01:36:10;;;;;;;0.75;0.65;;;;;;;19.99;36.74;101298.66;5021691;28;20038;-83
2023/02/24 01:38:38;;;;;;;2.10;1.00;;;;;;;20.03;36.65;101297.31;5015351;28;20180;-83
2023/02/24 01:41:05;;;;;;;0.65;0.50;;;;;;;20.10;36.51;101289.53;5006479;28;20056;-83
2023/02/24 01:43:57;;;;;;;1.15;0.82;;;;;;;20.09;36.49;101290.53;5020057;28;20038;-83
2023/02/24 01:46:31;;;;;;;1.25;0.95;;;;;;;20.05;36.63;101276.00;5023092;28;20040;-83
2023/02/24 01:49:28;;;;;;;0.60;0.60;;;;;;;20.03;36.80;101265.59;5022153;28;20463;-83
2023/02/24 01:51:57;;;;;;;1.00;0.70;;;;;;;20.05;36.50;101268.88;5025439;28;20045;-82
2023/02/24 01:54:27;;;;;;;0.60;0.60;;;;;;;20.00;36.43;101263.31;5024849;28;20056;-82
2023/02/24 01:56:55;;;;;;;0.40;0.40;;;;;;;20.02;36.58;101258.66;5025442;28;20033;-83
2023/02/24 01:59:22;;;;;;;1.23;0.55;;;;;;;20.10;36.37;101255.16;5021179;28;20133;-83
2023/02/24 02:01:52;;;;;;;0.85;0.60;;;;;;;19.98;36.76;101253.91;5019633;28;20709;-82
2023/02/24 02:04:53;;;;;;;1.08;0.80;;;;;;;19.94;36.58;101242.03;5020418;28;20053;-83
2023/02/24 02:07:20;;;;;;;0.70;0.57;;;;;;;20.07;36.50;101239.63;5016289;28;20049;-82
2023/02/24 02:09:48;;;;;;;0.45;0.45;;;;;;;19.94;36.70;101228.81;5024865;28;20029;-83
2023/02/24 02:12:13;;;;;;;1.77;0.73;;;;;;;20.00;36.60;101230.75;5028544;28;20593;-83
2023/02/24 02:14:51;;;;;;;1.10;0.65;;;;;;;20.04;36.60;101235.53;5013409;28;20060;-83
2023/02/24 02:17:30;;;;;;;0.70;0.70;;;;;;;20.02;36.67;101229.59;5010878;28;20546;-83
2023/02/24 02:20:21;;;;;;;0.28;0.25;;;;;;;20.07;36.49;101229.06;5008576;28;20037;-83
2023/02/24 02:22:53;;;;;;;0.57;0.50;;;;;;;20.07;36.53;101237.81;5027185;28;20677;-83
2023/02/24 02:25:24;;;;;;;0.50;0.50;;;;;;;20.08;36.45;101228.06;5019535;28;20049;-83
2023/02/24 02:28:30;;;;;;;0.95;0.60;;;;;;;19.96;36.79;101222.34;5025255;28;20765;-83
2023/02/24 02:31:18;;;;;;;0.63;0.50;;;;;;;20.06;36.55;101219.47;5003488;28;20033;-82
2023/02/24 02:34:20;;;;;;;1.05;0.70;;;;;;;19.99;36.68;101214.06;5008266;28;20599;-82
2023/02/24 02:36:45;;;;;;;0.85;0.73;;;;;;;20.10;36.51;101207.56;5021463;28;20111;-83
2023/02/24 02:39:29;;;;;;;1.05;0.50;;;;;;;19.99;36.73;101206.13;5019172;28;20548;-83
2023/02/24 02:42:13;;;;;;;0.50;0.50;;;;;;;20.03;36.58;101202.16;5021861;28;20041;-83
2023/02/24 02:44:43;;;;;;;0.98;0.70;;;;;;;19.94;36.96;101199.72;5023890;28;20068;-82
2023/02/24 02:47:25;;;;;;;0.57;0.50;;;;;;;19.91;36.74;101180.56;5006753;28;20479;-83
2023/02/24 02:49:57;;;;;;;;;;;;;;;20.00;36.65;101189.28;5021261;28;20059;-83
2023/02/24 02:52:39;;;;;;;0.40;0.40;;;;;;;19.94;36.71;101176.75;5015815;28;20035;-82
2023/02/24 02:55:12;;;;;;;0.60;0.60;;;;;;;19.98;36.48;101172.78;5008633;28;20036;-83
2023/02/24 02:57:46;;;;;;;0.93;0.50;;;;;;;19.87;36.67;101155.47;5026408;28;20033;-82
2023/02/24 03:00:22;;;;;;;0.60;0.43;;;;;;;19.96;36.68;101169.47;5015991;28;20038;-82
2023/02/24 03:02:56;;;;;;;0.73;0.65;;;;;;;19.92;37.01;101161.06;5022242;28;20116;-82
2023/02/24 03:05:55;;;;;;;1.00;0.80;;;;;;;20.01;36.66;101163.66;5021009;28;20052;-83
2023/02/24 03:08:25;;;;;;;0.68;0.60;;;;;;;19.90;36.88;101160.41;5023528;28;20076;-83
2023/02/24 03:10:54;;;;;;;0.50;0.50;;;;;;;19.86;36.77;101150.34;5014116;28;20033;-83
2023/02/24 03:13:29;;;;;;;0.75;0.47;;;;;;;19.90;36.66;101138.44;5025006;28;20518;-81
2023/02/24 03:15:58;;;;;;;1.05;0.60;;;;;;;19.85;36.91;101143.41;5019010;28;20089;-82
2023/02/24 03:18:30;;;;;;;0.35;0.35;;;;;;;20.00;36.73;101143.53;5020901;28;20907;-83
2023/02/24 03:21:06;;;;;;;0.57;0.47;;;;;;;19.91;36.67;101145.38;5021492;28;20038;-82
2023/02/24 03:23:38;;;;;;;0.70;0.60;;;;;;;19.91;36.36;101134.78;5020544;28;20053;-82
2023/02/24 03:26:20;;;;;;;1.83;0.85;;;;;;;19.87;36.94;101138.78;5031457;28;20038;-81
2023/02/24 03:29:00;;;;;;;0.75;0.32;;;;;;;20.03;36.66;101132.59;5022568;28;20025;-82
2023/02/24 03:31:40;;;;;;;1.67;0.60;;;;;;;19.87;36.73;101120.28;5021068;28;20037;-82
2023/02/24 03:34:33;;;;;;;1.23;0.80;;;;;;;19.95;36.79;101124.72;5020197;28;20958;-83
2023/02/24 03:37:00;;;;;;;0.47;0.45;;;;;;;19.76;36.92;101107.47;5013184;28;20036;-82
2023/02/24 03:39:26;;;;;;;1.35;0.82;;;;;;;19.96;36.83;101116.63;5016076;28;20045;-82
2023/02/24 03:42:17;;;;;;;0.85;0.40;;;;;;;19.73;36.84;101095.41;5019090;28;20037;-82
2023/02/24 03:44:44;;;;;;;;;;;;;;;19.86;36.97;101105.44;5007204;28;20029;-82
2023/02/24 03:47:11;;;;;;;0.40;0.40;;;;;;;19.77;37.03;101091.44;5017645;28;19921;-81
2023/02/24 03:49:37;;;;;;;0.82;0.60;;;;;;;19.79;36.99;101086.81;5020782;28;20034;-82
2023/02/24 03:52:36;;;;;;;0.65;0.30;;;;;;;19.91;36.80;101090.69;5021449;28;20067;-81
2023/02/24 03:55:24;;;;;;;0.65;0.63;;;;;;;19.94;36.76;101084.25;5019644;28;20103;-81
2023/02/24 03:58:25;;;;;;;1.50;0.73;;;;;;;19.90;36.86;101080.28;5021311;28;20077;-81
2023/02/24 04:01:17;;;;;;;0.63;0.47;;;;;;;19.89;36.83;101076.00;5035796;28;20032;-81
2023/02/24 04:04:26;;;;;;;0.50;0.50;;;;;;;19.84;36.73;101068.59;5014676;28;20038;-81
2023/02/24 04:07:14;;;;;;;0.73;0.43;;;;;;;19.84;36.90;101060.69;5021972;28;20037;-81
2023/02/24 04:09:51;;;;;;;0.45;0.45;;;;;;;19.83;36.94;101061.66;5018241;28;20237;-81
2023/02/24 04:12:29;;;;;;;1.40;0.57;;;;;;;19.83;36.88;101047.63;5017897;28;20051;-81
2023/02/24 04:15:21;;;;;;;1.27;0.52;;;;;;;19.96;36.78;101052.34;5016459;28;20061;-81
2023/02/24 04:17:52;;;;;;;0.38;0.25;;;;;;;19.85;36.84;101041.19;5035097;28;20026;-81
2023/02/24 04:20:21;;;;;;;1.05;0.47;;;;;;;19.81;36.94;101033.78;5023514;28;20021;-81
2023/02/24 04:23:03;;;;;;;1.00;0.47;;;;;;;19.75;36.94;101023.88;5019721;28;20033;-81
2023/02/24 04:25:30;;;;;;;0.85;0.45;;;;;;;19.90;36.81;101027.44;5016544;28;20041;-81
2023/02/24 04:27:59;;;;;;;0.52;0.52;;;;;;;19.81;36.87;101020.56;5018071;28;20145;-81
2023/02/24 04:30:30;;;;;;;0.30;0.30;;;;;;;19.74;36.94;101007.22;5004115;28;20959;-81
2023/02/24 04:32:56;;;;;;;0.20;0.20;;;;;;;19.76;36.96;100999.13;5015993;28;20034;-82
2023/02/24 04:35:25;;;;;;;0.47;0.47;;;;;;;19.75;36.78;100986.91;5020582;28;20045;-81
2023/02/24 04:37:51;;;;;;;1.00;0.52;;;;;;;19.74;37.12;101001.09;5018839;28;20033;-81
2023/02/24 04:40:20;;;;;;;1.00;0.50;;;;;;;19.76;36.89;100986.75;5023741;28;20048;-82
2023/02/24 04:42:48;;;;;;;0.63;0.32;;;;;;;19.86;36.82;100979.41;5022262;28;20457;-81
2023/02/24 04:45:20;;;;;;;0.52;0.38;;;;;;;19.64;36.85;100937.13;5016313;28;20034;-80
2023/02/24 04:47:50;;;;;;;0.40;0.40;;;;;;;19.74;37.07;100972.03;5018978;28;20044;-81
2023/02/24 04:50:22;;;;;;;0.10;0.10;;;;;;;19.75;37.09;100968.41;5019239;28;20052;-81
2023/02/24 04:52:53;;;;;;;0.50;0.40;;;;;;;19.80;36.99;100958.97;5022479;28;20052;-81
2023/02/24 04:55:21;;;;;;;0.38;0.38;;;;;;;19.73;37.21;100954.53;5040069;28;20164;-81
2023/02/24 04:57:48;;;;;;;0.50;0.50;;;;;;;19.80;37.04;100952.88;5025713;28;20038;-81
2023/02/24 05:00:21;;;;;;;0.90;0.60;;;;;;;19.84;36.76;100941.75;5019344;28;20432;-81
2023/02/24 05:02:51;;;;;;;1.55;0.90;;;;;;;19.88;36.89;100942.22;5027283;28;20136;-81
2023/02/24 05:05:24;;;;;;;;;;;;;;;19.79;36.93;100936.19;5023168;28;20057;-81
2023/02/24 05:08:03;;;;;;;0.85;0.47;;;;;;;19.68;37.05;100912.81;5026308;28;19975;-82
2023/02/24 05:10:35;;;;;;;0.98;0.60;;;;;;;19.70;37.09;100902.88;5027692;28;20056;-83
2023/02/24 05:13:01;;;;;;;0.32;0.20;;;;;;;19.77;36.82;100903.03;5028818;28;20120;-82
2023/02/24 05:15:31;;;;;;;0.55;0.20;;;;;;;19.72;37.07;100898.25;5024902;28;20050;-82
2023/02/24 05:18:00;;;;;;;;;;;;;;;19.78;36.97;100910.75;5023265;28;20751;-83
2023/02/24 05:23:13;;;;;;;0.68;0.50;;;;;;;19.77;36.95;100887.97;5023809;28;20033;-82
2023/02/24 05:25:41;;;;;;;1.23;0.50;;;;;;;19.76;36.90;100883.69;5024868;28;20498;-82
2023/02/24 05:28:07;;;;;;;1.10;0.55;;;;;;;19.80;37.01;100877.06;5024387;28;20048;-82
2023/02/24 05:30:34;;;;;;;1.13;0.40;;;;;;;19.72;37.02;100868.34;5020500;28;20045;-83
2023/02/24 05:33:00;;;;;;;0.65;0.52;;;;;;;19.67;37.13;100865.44;5024912;28;20125;-82
2023/02/24 05:35:25;;;;;;;1.15;0.52;;;;;;;19.64;37.02;100852.59;5021023;28;20127;-82
2023/02/24 05:37:51;;;;;;;0.95;0.32;;;;;;;19.64;37.09;100849.94;5028743;28;20662;-82
2023/02/24 05:40:21;;;;;;;1.45;0.77;;;;;;;19.73;36.87;100854.16;5021755;28;20474;-82
2023/02/24 05:42:47;;;;;;;0.45;0.30;;;;;;;19.68;37.03;100832.72;5018864;28;20049;-82
2023/02/24 05:45:13;;;;;;;0.77;0.70;;;;;;;19.69;36.94;100829.09;5024363;28;20034;-82
2023/02/24 05:47:39;;;;;;;0.57;0.45;;;;;;;19.75;36.95;100836.28;5015626;28;20045;-82
2023/02/24 05:50:08;;;;;;;0.75;0.60;;;;;;;19.78;36.92;100822.75;5020814;28;20030;-82
2023/02/24 05:52:35;;;;;;;0.40;0.30;;;;;;;19.73;36.99;100828.53;5023574;28;20044;-82
2023/02/24 05:55:05;;;;;;;0.30;0.30;;;;;;;19.72;37.02;100807.59;5021188;28;20044;-82
2023/02/24 05:57:34;;;;;;;0.88;0.50;;;;;;;19.75;36.81;100802.78;5021739;28;20132;-82
2023/02/24 06:00:09;;;;;;;0.75;0.63;;;;;;;19.65;36.94;100796.94;5023224;28;20072;-82
2023/02/24 06:02:38;;;;;;;0.82;0.50;;;;;;;19.71;37.05;100798.84;5018279;28;20045;-82
2023/02/24 06:05:07;;;;;;;0.68;0.50;;;;;;;19.72;36.96;100792.56;5017993;28;20077;-82
2023/02/24 06:07:33;;;;;;;0.82;0.45;;;;;;;19.75;36.94;100789.59;5014327;28;20045;-82
2023/02/24 06:10:00;;;;;;;1.20;0.77;;;;;;;19.67;37.08;100789.66;5020045;28;20053;-82
2023/02/24 06:12:32;;;;;;;1.52;0.43;;;;;;;19.75;36.91;100780.81;5018793;28;20034;-82
2023/02/24 06:14:58;;;;;;;0.30;0.20;;;;;;;19.65;36.92;100778.44;5023074;28;20037;-82
2023/02/24 06:17:24;;;;;;;0.40;0.40;;;;;;;19.64;37.11;100774.16;5023843;28;20041;-82
2023/02/24 06:19:51;;;;;;;1.00;0.65;;;;;;;19.70;37.04;100775.25;5020418;28;20159;-82
2023/02/24 06:22:20;;;;;;;0.22;0.22;;;;;;;19.69;37.01;100777.06;5022583;28;20044;-82
2023/02/24 06:24:48;;;;;;;1.20;0.73;;;;;;;19.54;37.28;100753.25;5022731;28;20036;-81
2023/02/24 06:27:18;;;;;;;0.80;0.50;;;;;;;19.59;37.23;100752.75;5022633;28;20045;-82
2023/02/24 06:29:51;;;;;;;0.82;0.32;;;;;;;19.57;37.30;100760.03;5025469;28;20376;-82
2023/02/24 06:32:19;;;;;;;0.45;0.40;;;;;;;19.64;37.11;100760.94;5016652;28;20116;-82
2023/02/24 06:34:45;;;;;;;0.73;0.30;;;;;;;19.72;36.90;100755.56;5022364;28;20694;-82
2023/02/24 06:37:13;;;;;;;0.32;0.22;;;;;;;19.60;37.33;100747.28;5017864;28;20022;-82
2023/02/24 06:39:39;;;;;;;0.47;0.32;;;;;;;19.71;36.98;100748.66;5024693;28;20072;-81
2023/02/24 06:42:07;;;;;;;0.30;0.20;;;;;;;19.71;36.90;100747.84;5021901;28;20068;-81
2023/02/24 06:44:35;;;;;;;0.75;0.60;;;;;;;19.63;37.11;100751.38;5023849;28;20056;-81
2023/02/24 06:47:01;;;;;;;0.40;0.38;;;;;;;19.57;37.21;100747.66;5024947;28;20477;-82
2023/02/24 06:49:27;;;;;;;0.52;0.28;;;;;;;19.60;37.06;100739.38;5020138;28;20052;-82
2023/02/24 06:51:54;;;;;;;1.45;0.68;;;;;;;19.67;37.07;100736.00;5018987;28;20037;-81
2023/02/24 06:54:27;;;;;;;0.47;0.20;;;;;;;19.56;37.13;100735.41;5024812;28;20120;-82
2023/02/24 06:56:53;;;;;;;1.00;0.30;;;;;;;19.54;37.17;100732.13;5025100;28;20094;-81
2023/02/24 06:59:21;;;;;;;1.02;0.82;;;;;;;19.64;37.10;100733.72;5026075;28;20036;-82
2023/02/24 07:01:48;;;;;;;0.77;0.40;;;;;;;19.70;37.00;100732.97;5024361;28;20063;-81
2023/02/24 07:06:48;;;;;;;0.32;0.30;;;;;;;19.61;36.94;100711.13;5025064;28;20128;-82
2023/02/24 07:09:15;;;;;;;0.82;0.50;;;;;;;19.60;37.13;100731.44;5023547;28;20087;-81
2023/02/24 07:11:47;;;;;;;1.00;0.63;;;;;;;19.61;37.08;100719.88;5025740;28;20033;-82
2023/02/24 07:14:13;;;;;;;0.82;0.40;;;;;;;19.54;37.13;100700.44;5022656;28;20073;-82
2023/02/24 07:16:44;;;;;;;1.05;0.30;;;;;;;19.57;37.19;100713.31;5021790;28;20099;-82
2023/02/24 07:19:14;;;;;;;0.40;0.40;;;;;;;19.73;36.71;100688.53;5018176;28;20041;-82
2023/02/24 07:21:45;;;;;;;1.13;0.63;;;;;;;20.34;35.90;100699.69;5018050;28;20049;-82
2023/02/24 07:24:19;;;;;;;0.28;0.28;;;;;;;20.83;34.87;100677.84;5015563;28;20044;-82
2023/02/24 07:26:50;;;;;;;0.45;0.40;;;;;;;21.22;34.15;100666.75;5025634;28;20041;-83
2023/02/24 07:29:17;;;;;;;0.77;0.43;;;;;;;21.46;34.06;100686.72;5018064;28;20087;-82
2023/02/24 07:31:42;;;;;;;0.50;0.50;;;;;;;21.35;34.16;100668.69;5012902;28;20037;-82
2023/02/24 07:34:08;;;;;;;0.43;0.38;;;;;;;21.33;34.37;100668.06;5016018;28;20045;-83
2023/02/24 07:36:47;;;;;;;0.98;0.70;;;;;;;21.23;34.62;100664.94;5020314;28;20029;-83
2023/02/24 07:39:15;;;;;;;0.65;0.65;;;;;;;21.11;34.68;100665.44;5017923;28;20041;-82
2023/02/24 07:41:45;;;;;;;0.45;0.22;;;;;;;21.06;34.78;100656.44;5019447;28;20029;-82
2023/02/24 07:44:12;;;;;;;0.80;0.40;;;;;;;20.69;35.14;100615.22;5022273;28;20056;-82
2023/02/24 07:46:39;;;;;;;0.55;0.30;;;;;;;20.80;35.43;100649.91;5015890;28;20052;-82
2023/02/24 07:49:08;;;;;;;0.90;0.55;;;;;;;20.69;35.65;100636.38;5014118;28;20081;-83
2023/02/24 07:51:34;;;;;;;0.35;0.28;;;;;;;20.46;35.72;100625.97;5018065;28;20033;-83
2023/02/24 07:54:02;;;;;;;0.70;0.32;;;;;;;20.49;35.93;100622.97;5019077;28;20065;-83
2023/02/24 07:56:29;;;;;;;0.52;0.35;;;;;;;19.94;36.60;100592.66;5024686;28;20049;-83
2023/02/24 07:59:06;;;;;;;0.95;0.50;;;;;;;20.00;36.47;100576.06;5016008;28;20139;-84
2023/02/24 08:01:48;;;;;;;1.00;0.68;;;;;;;20.08;36.73;100610.28;5017603;28;20041;-84
2023/02/24 08:04:22;;;;;;;1.02;0.47;;;;;;;19.91;36.44;100571.88;5021733;28;20041;-84
2023/02/24 08:06:54;;;;;;;0.60;0.40;;;;;;;20.21;36.62;100610.44;5020935;28;21019;-81
2023/02/24 08:09:45;;;;;;;1.05;0.55;;;;;;;20.26;36.50;100609.88;5015443;28;20038;-82
2023/02/24 08:12:06;;;;;;;0.40;0.38;;;;;;;20.20;36.43;100592.13;5017925;28;20043;-81
2023/02/24 08:14:33;;;;;;;0.77;0.40;;;;;;;20.05;36.58;100575.47;5017304;28;20021;-81
2023/02/24 08:17:04;;;;;;;1.05;0.55;;;;;;;20.20;36.58;100590.28;5023995;28;20969;-82
2023/02/24 08:19:38;;;;;;;0.52;0.50;;;;;;;19.92;36.79;100569.03;5021494;28;20056;-82
2023/02/24 08:22:18;;;;;;;0.85;0.45;;;;;;;20.20;36.61;100587.66;5018280;28;20047;-83
2023/02/24 08:24:53;;;;;;;0.50;0.38;;;;;;;20.17;36.64;100587.22;5018177;28;20033;-83
2023/02/24 08:27:21;;;;;;;0.63;0.50;;;;;;;20.00;36.77;100551.44;5017953;28;20127;-83
2023/02/24 08:29:57;;;;;;;0.68;0.35;;;;;;;19.96;36.76;100550.19;5018899;28;20026;-82
2023/02/24 08:32:42;;;;;;;0.85;0.63;;;;;;;20.12;36.67;100563.19;5016073;28;20068;-82
2023/02/24 08:35:13;;;;;;;1.33;0.77;;;;;;;20.12;36.75;100566.63;5020429;28;20041;-83
2023/02/24 08:37:45;;;;;;;0.73;0.63;;;;;;;20.03;36.51;100533.38;5014417;28;20155;-82
2023/02/24 08:43:08;;;;;;;0.60;0.52;;;;;;;19.99;36.80;100536.59;5018993;28;20043;-82
2023/02/24 08:45:37;;;;;;;1.67;0.77;;;;;;;19.96;36.85;100531.69;5013048;28;20132;-82
2023/02/24 08:48:17;;;;;;;1.00;0.60;;;;;;;19.87;36.86;100513.28;5017552;28;20840;-82
2023/02/24 08:50:47;;;;;;;1.13;0.50;;;;;;;19.94;36.63;100508.09;5018362;28;20064;-81
2023/02/24 08:53:17;;;;;;;1.05;0.80;;;;;;;20.01;36.80;100516.91;5015057;28;20172;-82
2023/02/24 08:55:50;;;;;;;;;;;;;;;20.15;36.65;100520.50;5016885;28;20060;-82
2023/02/24 08:58:25;;;;;;;0.82;0.65;;;;;;;19.90;36.58;100470.63;5018909;28;19921;-82
2023/02/24 09:00:55;;;;;;;0.95;0.65;;;;;;;19.85;36.55;100467.75;5017370;28;20061;-81
2023/02/24 09:03:28;;;;;;;;;;;;;;;20.14;36.64;100505.66;5019527;28;20042;-82
2023/02/24 09:06:07;;;;;;;1.17;0.60;;;;;;;20.09;36.85;100505.38;5017526;28;20679;-82
2023/02/24 09:08:37;;;;;;;0.52;0.50;;;;;;;19.96;36.66;100471.72;5020375;28;20763;-81
2023/02/24 09:11:12;;;;;;;2.35;1.00;;;;;;;20.01;36.56;100471.97;5017906;28;20033;-81
2023/02/24 09:13:50;;;;;;;1.05;0.70;;;;;;;20.27;36.40;100475.84;5019123;28;20169;-84
2023/02/24 09:16:22;;;;;;;1.08;0.77;;;;;;;20.21;36.49;100475.59;5015903;28;20044;-82
2023/02/24 09:24:26;;;;;;;1.48;0.73;;;;;;;20.32;36.25;100447.84;5010821;28;20041;-81
2023/02/24 09:26:57;;;;;;;0.50;0.40;;;;;;;20.81;35.64;100466.28;5000897;28;20529;-82
2023/02/24 09:29:32;;;;;;;2.13;0.93;;;;;;;20.98;35.33;100458.84;5020729;28;20052;-83
2023/02/24 09:32:03;;;;;;;1.33;0.60;;;;;;;20.81;35.21;100431.88;5017587;28;20069;-82
2023/02/24 09:34:37;;;;;;;1.42;0.82;;;;;;;20.96;35.12;100460.06;5018414;28;20069;-81
2023/02/24 09:37:03;;;;;;;0.85;0.65;;;;;;;20.86;35.19;100430.50;5022578;28;20033;-83
2023/02/24 09:40:12;;;;;;;0.77;0.65;;;;;;;20.91;35.16;100452.72;5024251;28;20102;-84
2023/02/24 09:44:55;;;;;;;0.40;0.38;;;;;;;20.51;35.94;100431.31;5024416;28;20047;-83
2023/02/24 09:47:56;;;;;;;0.80;0.73;;;;;;;20.57;35.99;100445.59;5023880;28;20037;-82
2023/02/24 09:50:36;;;;;;;1.13;0.82;;;;;;;20.57;36.15;100444.78;5021326;28;20076;-82
2023/02/24 09:53:16;;;;;;;0.60;0.52;;;;;;;20.51;36.04;100438.44;5022662;28;20037;-81
2023/02/24 09:56:05;;;;;;;1.40;0.73;;;;;;;20.21;36.27;100403.41;5016929;28;20076;-83
2023/02/24 09:58:48;;;;;;;1.97;0.67;;;;;;;20.45;36.15;100440.00;5025806;28;20484;-82
2023/02/24 10:01:45;;;;;;;0.85;0.60;;;;;;;20.30;36.46;100439.28;5021457;28;20036;-82
2023/02/24 10:04:32;;;;;;;1.67;0.93;;;;;;;20.19;36.62;100435.31;5019695;28;20108;-82
2023/02/24 10:07:01;;;;;;;0.95;0.65;;;;;;;20.18;36.80;100441.63;5021241;28;20640;-82
2023/02/24 10:09:36;;;;;;;0.70;0.65;;;;;;;20.13;36.81;100443.22;5019606;28;20582;-82
2023/02/24 10:12:15;;;;;;;0.40;0.40;;;;;;;20.20;36.78;100442.25;5019645;28;20083;-82
2023/02/24 10:14:43;;;;;;;1.52;0.75;;;;;;;20.18;36.60;100448.72;5021806;28;20041;-82
2023/02/24 10:17:21;;;;;;;1.42;0.73;;;;;;;20.07;36.90;100444.78;5023088;28;20049;-82
2023/02/24 10:20:01;;;;;;;0.85;0.60;;;;;;;20.16;36.75;100430.41;5017785;28;20042;-81
2023/02/24 10:22:39;;;;;;;0.68;0.60;;;;;;;20.02;37.02;100425.22;5018719;28;20061;-82
2023/02/24 10:25:40;;;;;;;1.27;0.90;;;;;;;20.02;37.01;100431.31;5024264;28;20470;-82
2023/02/24 10:28:34;;;;;;;1.23;0.80;;;;;;;19.96;36.91;100395.09;5013790;28;20056;-83
2023/02/24 10:31:24;;;;;;;1.05;0.95;;;;;;;20.11;36.78;100430.19;5027070;28;20038;-81
2023/02/24 10:33:59;;;;;;;;;;;;;;;20.11;36.78;100419.63;5021471;28;20099;-82
2023/02/24 10:36:34;;;;;;;0.55;0.50;;;;;;;19.99;36.90;100415.03;5016107;28;19928;-81
2023/02/24 10:39:29;;;;;;;1.13;0.75;;;;;;;20.07;36.79;100412.22;5025169;28;20033;-82
2023/02/24 10:41:57;;;;;;;0.68;0.65;;;;;;;20.35;36.37;100404.31;5019698;28;20059;-82
2023/02/24 10:44:34;;;;;;;0.50;0.50;;;;;;;20.89;35.30;100403.66;5020459;28;20061;-82
2023/02/24 10:47:12;;;;;;;2.10;0.77;;;;;;;21.23;34.79;100395.63;5018890;28;20144;-82
2023/02/24 10:49:43;;;;;;;1.10;0.90;;;;;;;21.25;34.84;100384.88;5017754;28;20498;-82
2023/02/24 10:52:32;;;;;;;0.85;0.70;;;;;;;21.24;34.68;100381.41;5020489;28;20040;-81
2023/02/24 10:55:07;;;;;;;1.08;0.65;;;;;;;21.27;34.64;100396.91;5007589;28;20259;-83
2023/02/24 10:57:45;;;;;;;0.63;0.63;;;;;;;21.15;34.77;100398.44;5016386;28;20073;-83
2023/02/24 11:03:09;;;;;;;2.10;0.80;;;;;;;21.06;35.10;100402.28;5024932;28;20034;-81
2023/02/24 11:11:24;;;;;;;0.88;0.55;;;;;;;20.81;35.57;100389.53;5021974;28;20041;-83
2023/02/24 11:19:36;;;;;;;1.52;1.15;;;;;;;20.59;35.90;100368.69;5017612;28;20049;-82
2023/02/24 11:22:03;;;;;;;2.22;1.00;;;;;;;20.54;36.18;100379.03;5016388;28;20549;-82
2023/02/24 11:24:29;;;;;;;1.13;1.02;;;;;;;20.34;35.97;100350.63;5015227;28;20037;-82
2023/02/24 11:26:56;;;;;;;1.38;0.73;;;;;;;20.19;36.62;100371.06;4999348;28;20099;-82
2023/02/24 11:29:54;;;;;;;2.47;1.13;;;;;;;20.17;36.66;100363.31;5013522;28;20045;-81
2023/02/24 11:32:46;;;;;;;2.85;1.20;;;;;;;20.13;36.52;100348.03;5014234;28;20583;-82
2023/02/24 11:35:22;;;;;;;1.38;0.82;;;;;;;20.14;36.37;100332.00;5013730;28;20057;-82
2023/02/24 11:38:06;;;;;;;1.50;0.77;;;;;;;20.18;36.89;100366.78;5019515;28;20041;-82
2023/02/24 11:40:42;;;;;;;3.67;1.40;;;;;;;20.13;36.65;100351.50;5012078;28;20563;-81
2023/02/24 11:43:17;;;;;;;1.52;0.95;;;;;;;20.12;36.91;100362.28;5014869;28;20041;-81
2023/02/24 11:46:00;;;;;;;2.22;1.02;;;;;;;20.13;36.74;100348.03;5014427;28;20396;-81
2023/02/24 11:48:31;;;;;;;2.42;0.98;;;;;;;20.12;36.76;100349.88;5016853;28;20052;-81
2023/02/24 11:51:17;;;;;;;1.95;1.20;;;;;;;20.13;36.84;100335.66;5015507;28;20036;-81
2023/02/24 11:53:43;;;;;;;2.05;1.20;;;;;;;20.15;36.75;100330.16;5018672;28;20068;-80
2023/02/24 11:56:26;;;;;;;1.65;0.90;;;;;;;20.15;36.74;100324.88;5015542;28;20029;-81
2023/02/24 11:59:12;;;;;;;2.55;1.55;;;;;;;20.12;36.69;100322.63;5019847;28;20034;-81
2023/02/24 12:01:55;;;;;;;2.92;1.23;;;;;;;20.07;36.92;100311.78;5005244;28;20049;-81
2023/02/24 12:04:29;;;;;;;2.50;1.25;;;;;;;20.10;36.77;100312.22;5016982;28;20037;-81
2023/02/24 12:07:17;;;;;;;2.38;1.30;;;;;;;20.18;36.66;100312.09;5016364;28;20054;-81
2023/02/24 12:09:49;;;;;;;1.92;1.13;;;;;;;20.06;36.67;100302.22;5018805;28;20041;-80
2023/02/24 12:12:24;;;;;;;4.20;1.58;;;;;;;20.09;36.95;100334.38;5018410;28;20041;-80
2023/02/24 12:14:58;;;;;;;2.15;1.10;;;;;;;20.06;36.89;100312.81;5015865;28;20033;-81
2023/02/24 12:17:45;;;;;;;2.90;1.60;;;;;;;20.05;36.94;100324.38;5011508;28;20029;-82
2023/02/24 12:20:22;;;;;;;4.13;1.70;;;;;;;19.94;37.13;100327.59;5016074;28;20049;-79
2023/02/24 12:22:56;;;;;;;2.83;1.58;;;;;;;20.04;37.26;100322.75;5015853;28;20353;-80
2023/02/24 12:25:28;;;;;;;5.05;1.63;;;;;;;19.95;37.81;100316.81;5012748;28;20037;-80
2023/02/24 12:28:34;;;;;;;3.60;1.77;;;;;;;20.01;37.60;100318.69;5014961;28;20075;-82
2023/02/24 12:31:28;;;;;;;4.13;2.22;;;;;;;20.52;36.37;100311.28;5008585;28;20046;-81